Flight Track Log - Related Links

Times and Time Zones

All times are in EDT time to prevent confusion due to time zone crossing. See the SWA652 flight status page for this flight to view local times or setup timezone preferences in your user account.

Time Position Orientation Groundspeed Altitude Reporting Facility
EDT Latitude Longitude Course Direction KTS MPH feet Rate Location/Type
Mon 12:21:47 PM 36.0761 -115.1683 270° West 163 188 3,000  Level Los Angeles Center
Mon 12:22:42 PM 36.0758 -115.2267 270° West 196 226 4,600 1,694 Climbing Los Angeles Center
Mon 12:23:12 PM 36.0614 -115.2564 239° Southwest 222 255 5,400 1,745 Climbing Los Angeles Center
Mon 12:23:37 PM 36.0339 -115.2725 205° Southwest 244 281 6,200 2,710 Climbing Los Angeles Center
Mon 12:24:14 PM 35.9944 -115.2903 200° South 256 295 8,200 3,800 Climbing Los Angeles Center
Mon 12:24:37 PM 35.9664 -115.3000 196° South 258 297 10,000 3,290 Climbing Los Angeles Center
Mon 12:25:16 PM 35.9306 -115.2692 145° Southeast 270 311 11,600 2,554 Climbing Los Angeles Center
Mon 12:26:18 PM 35.9142 -115.1503 100° East 344 396 14,300 2,928 Climbing Los Angeles Center
Mon 12:27:21 PM 35.9019 -115.0222 97° East 371 427 17,700 3,168 Climbing Los Angeles Center
Mon 12:28:23 PM 35.8836 -114.8614 98° East 391 450 20,900 2,855 Climbing Los Angeles Center
Mon 12:29:25 PM 35.8689 -114.7214 97° East 407 468 23,600 2,806 Climbing Los Angeles Center
Mon 12:30:27 PM 35.8492 -114.5800 100° East 416 479 26,700 2,613 Climbing Los Angeles Center
Mon 12:31:29 PM 35.7881 -114.4703 124° Southeast 388 447 29,000 1,113 Climbing Los Angeles Center
Mon 12:32:31 PM 35.7283 -114.3578 123° Southeast 391 450 29,000  Level Los Angeles Center
Mon 12:33:33 PM 35.6694 -114.2472 123° Southeast 393 452 29,000  Level Los Angeles Center
Mon 12:34:35 PM 35.5967 -114.1097 123° Southeast 399 459 29,000  Level Los Angeles Center
Mon 12:35:37 PM 35.5378 -114.0014 124° Southeast 389 448 29,000  Level Los Angeles Center
Mon 12:36:40 PM 35.4792 -113.8900 123° Southeast 391 450 29,000  Level Los Angeles Center
Mon 12:37:42 PM 35.4181 -113.7786 124° Southeast 394 453 29,000  Level Los Angeles Center
Mon 12:38:44 PM 35.3586 -113.6681 123° Southeast 394 453 29,000  Level Los Angeles Center
Mon 12:39:46 PM 35.2856 -113.5350 124° Southeast 395 455 29,000  Level Los Angeles Center
Mon 12:40:48 PM 35.2233 -113.4214 124° Southeast 403 464 29,000  Level Los Angeles Center
Mon 12:41:50 PM 35.1608 -113.3058 123° Southeast 410 472 29,000  Level Los Angeles Center
Mon 12:42:52 PM 35.0964 -113.1903 124° Southeast 416 479 29,000  Level Los Angeles Center
Mon 12:43:54 PM 35.0003 -113.0797 137° Southeast 403 464 29,000  Level Los Angeles Center
Mon 12:44:57 PM 34.9167 -112.9919 139° Southeast 400 460 29,000  Level Los Angeles Center
Mon 12:45:59 PM 34.8325 -112.9036 139° Southeast 403 464 29,000  Level Los Angeles Center
Mon 12:47:01 PM 34.7483 -112.8175 140° Southeast 401 461 29,000 -46 Level Los Angeles Center
Mon 12:48:09 PM 34.6481 -112.7117 139° Southeast 399 459 28,900 -1,200 Descending Albuquerque Center
Mon 12:49:11 PM 34.5639 -112.6264 140° Southeast 398 458 26,400 -2,274 Descending Albuquerque Center
Mon 12:50:13 PM 34.4808 -112.5392 139° Southeast 398 458 24,200 -2,274 Descending Albuquerque Center
Mon 12:51:15 PM 34.3881 -112.4450 140° Southeast 394 453 21,700 -2,244 Descending Albuquerque Center
Mon 12:52:16 PM 34.3089 -112.3631 139° Southeast 381 438 19,600 -2,098 Descending Albuquerque Center
Mon 12:53:18 PM 34.2322 -112.2850 140° Southeast 367 422 17,400 -2,274 Descending Albuquerque Center
Mon 12:54:20 PM 34.1439 -112.1950 140° Southeast 349 402 14,900 -1,597 Descending Albuquerque Center
Mon 12:55:22 PM 34.0714 -112.1383 147° Southeast 318 366 14,100 -1,065 Descending Albuquerque Center
Mon 12:56:24 PM 33.9953 -112.1450 184° South 280 322 12,700 -1,016 Descending Albuquerque Center
Mon 12:57:26 PM 33.9256 -112.1542 186° South 257 296 12,000 -823 Descending Albuquerque Center
Mon 12:58:28 PM 33.8628 -112.1644 188° South 233 268 11,000 -1,065 Descending Albuquerque Center
Mon 12:59:30 PM 33.7992 -112.1778 190° South 233 268 9,800 -1,258 Descending Albuquerque Center
Mon 01:00:32 PM 33.7236 -112.1950 191° South 231 266 8,400 -1,210 Descending Albuquerque Center
Mon 01:01:34 PM 33.6606 -112.2078 190° South 231 266 7,300 -1,113 Descending Albuquerque Center
Mon 01:02:36 PM 33.5986 -112.2203 190° South 227 261 6,100 -976 Descending Albuquerque Center
Mon 01:03:37 PM 33.5358 -112.2200 180° South 227 261 5,300 -878 Descending Albuquerque Center
Mon 01:04:39 PM 33.4775 -112.1953 161° South 229 264 4,300 -1,032 Descending Albuquerque Center
Mon 01:06:14 PM 33.4500 -112.1000 109° East 167 192 2,600 -1,084 Descending Phoenix TRACON
Mon 01:07:14 PM 33.4333 -112.0500 112° Southeast 154 177 1,500 -1,100 Descending Phoenix TRACON
Mon 01:09:00 PM 33.4343 -112.0116 270° West  Level Estimated

Login

Don't have an account? Register now (free) for customized features, flight alerts, and more!